createdAt,value
2022-08-23T00:02:22.819Z,98781.13
2022-08-23T00:05:07.542Z,98777.44
2022-08-23T00:07:42.624Z,98771.34
2022-08-23T00:10:13.678Z,98777.81
2022-08-23T00:12:43.555Z,98773.13
2022-08-23T00:15:15.212Z,98768.91
2022-08-23T00:17:44.585Z,98768.47
2022-08-23T00:20:15.467Z,98772.00
2022-08-23T00:22:42.916Z,98768.00
2022-08-23T00:25:13.885Z,98768.78
2022-08-23T00:27:40.693Z,98765.53
2022-08-23T00:30:10.754Z,98768.44
2022-08-23T00:32:39.075Z,98764.25
2022-08-23T00:35:09.300Z,98758.41
2022-08-23T00:37:36.609Z,98761.47
2022-08-23T00:40:08.448Z,98763.34
2022-08-23T00:43:07.859Z,98762.66
2022-08-23T00:46:11.207Z,98752.28
2022-08-23T00:48:39.705Z,98761.00
2022-08-23T00:51:18.274Z,98761.56
2022-08-23T00:53:53.938Z,98762.41
2022-08-23T00:56:24.958Z,98756.56
2022-08-23T00:58:53.254Z,98760.97
2022-08-23T01:01:20.006Z,98759.56
2022-08-23T01:04:04.066Z,98762.50
2022-08-23T01:06:34.427Z,98764.16
2022-08-23T01:09:13.042Z,98760.38
2022-08-23T01:11:50.994Z,98758.44
2022-08-23T01:14:26.931Z,98756.19
2022-08-23T01:17:05.499Z,98756.81
2022-08-23T01:19:46.669Z,98753.38
2022-08-23T01:22:38.100Z,98758.88
2022-08-23T01:25:10.361Z,98758.38
2022-08-23T01:27:38.991Z,98751.66
2022-08-23T01:30:10.138Z,98763.66
2022-08-23T01:32:46.367Z,98761.59
2022-08-23T01:35:13.996Z,98754.25
2022-08-23T01:37:42.007Z,98759.34
2022-08-23T01:40:09.350Z,98760.63
2022-08-23T01:42:36.478Z,98753.91
2022-08-23T01:45:03.718Z,98753.94
2022-08-23T01:47:31.738Z,98751.28
2022-08-23T01:49:58.423Z,98749.78
2022-08-23T01:52:25.078Z,98754.25
2022-08-23T01:54:51.747Z,98752.97
2022-08-23T01:57:18.486Z,98753.81
2022-08-23T01:59:45.254Z,98756.72
2022-08-23T02:02:12.192Z,98756.72
2022-08-23T02:04:38.862Z,98757.91
2022-08-23T02:07:05.575Z,98760.78
2022-08-23T02:09:32.280Z,98750.88
2022-08-23T02:12:01.351Z,98752.88
2022-08-23T02:14:28.041Z,98755.28
2022-08-23T02:17:04.496Z,98750.41
2022-08-23T02:19:34.224Z,98756.03
2022-08-23T02:22:01.215Z,98755.41
2022-08-23T02:24:27.873Z,98760.25
2022-08-23T02:26:57.979Z,98762.09
2022-08-23T02:29:26.710Z,98760.47
2022-08-23T02:31:54.067Z,98762.69
2022-08-23T02:34:23.263Z,98763.97
2022-08-23T02:36:52.960Z,98769.72
2022-08-23T02:39:22.972Z,98766.63
2022-08-23T02:41:50.163Z,98767.53
2022-08-23T02:44:16.870Z,98764.91
2022-08-23T02:46:43.704Z,98769.72
2022-08-23T02:49:11.196Z,98770.41
2022-08-23T02:51:39.565Z,98768.00
2022-08-23T02:54:06.959Z,98774.44
2022-08-23T02:56:34.423Z,98768.13
2022-08-23T02:59:01.360Z,98774.06
2022-08-23T03:01:38.803Z,98778.88
2022-08-23T03:04:10.367Z,98771.34
2022-08-23T03:06:38.602Z,98769.81
2022-08-23T03:09:07.231Z,98773.69
2022-08-23T03:11:34.347Z,98782.28
2022-08-23T03:14:01.904Z,98773.72
2022-08-23T03:16:29.007Z,98779.22
2022-08-23T03:18:55.847Z,98780.53
2022-08-23T03:21:22.964Z,98775.63
2022-08-23T03:23:55.607Z,98765.59
2022-08-23T03:26:22.312Z,98770.56
2022-08-23T03:28:49.016Z,98771.84
2022-08-23T03:31:16.932Z,98781.38
2022-08-23T03:33:43.776Z,98784.66
2022-08-23T03:36:11.987Z,98778.47
2022-08-23T03:38:39.948Z,98778.00
2022-08-23T03:41:08.121Z,98783.28
2022-08-23T03:43:36.192Z,98782.88
2022-08-23T03:46:04.277Z,98780.00
2022-08-23T03:48:31.160Z,98781.75
2022-08-23T03:50:59.130Z,98788.50
2022-08-23T03:53:25.893Z,98788.75
2022-08-23T03:55:59.673Z,98783.22
2022-08-23T03:58:27.838Z,98800.81
2022-08-23T04:00:55.149Z,98805.38
2022-08-23T04:03:21.851Z,98798.16
2022-08-23T04:05:48.493Z,98803.00
2022-08-23T04:08:15.144Z,98803.22
2022-08-23T04:10:47.722Z,98811.69
2022-08-23T04:13:14.397Z,98806.59
2022-08-23T04:15:43.487Z,98806.63
2022-08-23T04:18:10.581Z,98809.81
2022-08-23T04:20:37.898Z,98801.47
2022-08-23T04:23:05.557Z,98806.34
2022-08-23T04:25:35.503Z,98804.94
2022-08-23T04:28:04.072Z,98817.66
2022-08-23T04:30:32.848Z,98810.97
2022-08-23T04:32:59.829Z,98818.78
2022-08-23T04:35:28.619Z,98811.94
2022-08-23T04:37:55.274Z,98812.47
2022-08-23T04:40:40.425Z,98813.81
2022-08-23T04:43:08.596Z,98815.31
2022-08-23T04:45:38.962Z,98818.50
2022-08-23T04:48:06.536Z,98820.66
2022-08-23T04:50:40.159Z,98821.88
2022-08-23T04:53:07.300Z,98826.97
2022-08-23T04:55:36.507Z,98828.09
2022-08-23T04:58:04.568Z,98827.13
2022-08-23T05:00:31.452Z,98828.59
2022-08-23T05:02:58.134Z,98835.78
2022-08-23T05:05:25.185Z,98836.31
2022-08-23T05:07:51.842Z,98837.91
2022-08-23T05:10:18.984Z,98837.75
2022-08-23T05:12:47.127Z,98844.47
2022-08-23T05:15:14.173Z,98840.00
2022-08-23T05:17:40.836Z,98842.47
2022-08-23T05:20:11.296Z,98848.72
2022-08-23T05:22:41.337Z,98838.88
2022-08-23T05:25:09.248Z,98841.50
2022-08-23T05:27:36.570Z,98854.91
2022-08-23T05:30:05.115Z,98848.56
2022-08-23T05:32:33.583Z,98854.72
2022-08-23T05:35:00.851Z,98856.31
2022-08-23T05:37:27.836Z,98855.72
2022-08-23T05:39:54.543Z,98865.44
2022-08-23T05:42:21.836Z,98858.63
2022-08-23T05:44:48.516Z,98861.78
2022-08-23T05:47:16.972Z,98864.88
2022-08-23T05:49:45.525Z,98866.72
2022-08-23T05:52:14.661Z,98864.16
2022-08-23T05:54:41.873Z,98872.50
2022-08-23T05:57:10.385Z,98869.13
2022-08-23T05:59:39.669Z,98877.63
2022-08-23T06:02:06.477Z,98883.16
2022-08-23T06:04:33.318Z,98879.44
2022-08-23T06:06:59.989Z,98883.09
2022-08-23T06:09:27.149Z,98883.34
2022-08-23T06:11:54.597Z,98884.19
2022-08-23T06:14:21.657Z,98889.16
2022-08-23T06:16:54.877Z,98892.72
2022-08-23T06:19:23.666Z,98886.97
2022-08-23T06:21:51.941Z,98895.66
2022-08-23T06:24:20.086Z,98886.28
2022-08-23T06:26:47.384Z,98889.41
2022-08-23T06:29:18.657Z,98889.28
2022-08-23T06:31:49.565Z,98890.34
2022-08-23T06:34:36.009Z,98898.06
2022-08-23T06:37:07.485Z,98895.88
2022-08-23T06:39:38.673Z,98898.72
2022-08-23T06:42:34.359Z,98897.31
2022-08-23T06:44:55.663Z,98900.38
2022-08-23T06:47:23.143Z,98904.50
2022-08-23T06:49:51.114Z,98885.25
2022-08-23T06:52:25.461Z,98897.13
2022-08-23T06:54:52.421Z,98903.84
2022-08-23T06:57:20.461Z,98894.88
2022-08-23T06:59:49.741Z,98893.47
2022-08-23T07:02:16.698Z,98901.28
2022-08-23T07:04:43.591Z,98891.03
2022-08-23T07:07:12.352Z,98898.81
2022-08-23T07:09:41.053Z,98897.28
2022-08-23T07:12:08.910Z,98901.34
2022-08-23T07:14:37.125Z,98901.75
2022-08-23T07:17:04.576Z,98906.56
2022-08-23T07:19:34.330Z,98903.38
2022-08-23T07:22:03.329Z,98910.41
2022-08-23T07:24:33.583Z,98909.16
2022-08-23T07:27:06.253Z,98903.66
2022-08-23T07:29:34.013Z,98904.66
2022-08-23T07:32:01.173Z,98904.25
2022-08-23T07:34:28.768Z,98911.97
2022-08-23T07:36:55.717Z,98913.38
2022-08-23T07:39:23.690Z,98914.09
2022-08-23T07:41:52.549Z,98915.88
2022-08-23T07:44:20.047Z,98917.25
2022-08-23T07:46:50.544Z,98915.59
2022-08-23T07:49:17.847Z,98918.53
2022-08-23T07:51:50.557Z,98918.84
2022-08-23T07:54:19.408Z,98917.28
2022-08-23T07:56:49.467Z,98921.94
2022-08-23T07:59:16.282Z,98925.59
2022-08-23T08:01:44.468Z,98922.09
2022-08-23T08:04:12.588Z,98916.78
2022-08-23T08:06:46.042Z,98914.47
2022-08-23T08:09:15.223Z,98926.41
2022-08-23T08:11:45.328Z,98924.31
2022-08-23T08:14:12.676Z,98929.22
2022-08-23T08:16:46.654Z,98928.81
2022-08-23T08:19:16.887Z,98926.41
2022-08-23T08:21:45.990Z,98931.19
2022-08-23T08:24:16.327Z,98928.69
2022-08-23T08:26:44.176Z,98929.53
2022-08-23T08:29:12.483Z,98925.28
2022-08-23T08:31:42.586Z,98927.69
2022-08-23T08:34:09.927Z,98934.97
2022-08-23T08:36:46.870Z,98935.44
2022-08-23T08:39:18.845Z,98937.66
2022-08-23T08:42:04.841Z,98944.44
2022-08-23T08:44:42.214Z,98940.00
2022-08-23T08:47:22.435Z,98946.94
2022-08-23T08:50:01.289Z,98944.13
2022-08-23T08:52:33.476Z,98949.00
2022-08-23T08:55:20.622Z,98944.50
2022-08-23T08:57:49.053Z,98943.78
2022-08-23T09:00:21.526Z,98942.13
2022-08-23T09:02:48.309Z,98938.19
2022-08-23T09:05:21.365Z,98938.09
2022-08-23T09:08:04.312Z,98943.41
2022-08-23T09:11:11.107Z,98935.56
2022-08-23T09:14:37.931Z,98934.38
2022-08-23T09:17:31.069Z,98941.06
2022-08-23T09:20:03.215Z,98935.97
2022-08-23T09:22:47.739Z,98941.88
2022-08-23T09:25:16.929Z,98942.00
2022-08-23T09:27:45.730Z,98942.78
2022-08-23T09:30:16.916Z,98941.06
2022-08-23T09:32:46.061Z,98934.44
2022-08-23T09:35:20.929Z,98939.72
2022-08-23T09:37:50.163Z,98940.72
2022-08-23T09:40:41.179Z,98943.69
2022-08-23T09:43:13.827Z,98936.44
2022-08-23T09:46:02.006Z,98933.97
2022-08-23T09:48:42.441Z,98936.09
2022-08-23T09:51:40.390Z,98925.84
2022-08-23T09:54:34.986Z,98928.50
2022-08-23T09:57:06.373Z,98933.66
2022-08-23T09:59:47.836Z,98929.88
2022-08-23T10:02:32.226Z,98912.75
2022-08-23T10:05:07.293Z,98922.72
2022-08-23T10:07:43.617Z,98915.50
2022-08-23T10:10:24.925Z,98925.66
2022-08-23T10:12:54.371Z,98915.56
2022-08-23T10:15:56.210Z,98915.63
2022-08-23T10:19:10.223Z,98910.34
2022-08-23T10:21:44.173Z,98903.19
2022-08-23T10:24:55.339Z,98917.66
2022-08-23T10:28:03.973Z,98909.53
2022-08-23T10:31:31.147Z,98913.81
2022-08-23T10:34:35.619Z,98902.72
2022-08-23T10:37:52.238Z,98902.94
2022-08-23T10:40:58.294Z,98908.78
2022-08-23T10:44:05.746Z,98902.94
2022-08-23T10:46:41.810Z,98910.22
2022-08-23T10:49:12.826Z,98912.97
2022-08-23T10:51:47.594Z,98895.59
2022-08-23T10:54:48.750Z,98892.78
2022-08-23T10:57:20.294Z,98894.22
2022-08-23T10:59:48.247Z,98889.25
2022-08-23T11:03:15.769Z,98893.63
2022-08-23T11:05:43.243Z,98881.19
2022-08-23T11:08:30.042Z,98885.66
2022-08-23T11:10:57.152Z,98882.66
2022-08-23T11:13:29.386Z,98878.22
2022-08-23T11:16:09.320Z,98871.00
2022-08-23T11:18:43.309Z,98884.91
2022-08-23T11:21:19.147Z,98881.19
2022-08-23T11:24:12.254Z,98875.38
2022-08-23T11:26:40.759Z,98875.41
2022-08-23T11:29:07.331Z,98874.69
2022-08-23T11:31:42.922Z,98865.19
2022-08-23T11:34:40.903Z,98875.41
2022-08-23T11:37:19.535Z,98876.88
2022-08-23T11:40:07.322Z,98871.06
2022-08-23T11:42:40.058Z,98863.69
2022-08-23T11:45:38.127Z,98864.44
2022-08-23T11:48:43.477Z,98862.28
2022-08-23T11:51:42.322Z,98853.50
2022-08-23T11:54:27.546Z,98849.09
2022-08-23T11:57:29.246Z,98863.00
2022-08-23T12:00:29.228Z,98860.81
2022-08-23T12:03:17.771Z,98849.09
2022-08-23T12:05:53.971Z,98853.28
2022-08-23T12:08:21.870Z,98860.78
2022-08-23T12:10:48.450Z,98866.53
2022-08-23T12:13:21.206Z,98854.97
2022-08-23T12:16:16.233Z,98857.84
2022-08-23T12:18:54.406Z,98849.09
2022-08-23T12:21:39.323Z,98850.56
2022-08-23T12:24:30.638Z,98855.63
2022-08-23T12:27:04.861Z,98864.41
2022-08-23T12:29:54.162Z,98860.00
2022-08-23T12:33:11.670Z,98863.31
2022-08-23T12:35:50.215Z,98863.25
2022-08-23T12:39:01.782Z,98855.94
2022-08-23T12:41:48.842Z,98852.84
2022-08-23T12:44:21.534Z,98849.28
2022-08-23T12:46:50.452Z,98846.28
2022-08-23T12:49:29.588Z,98850.25
2022-08-23T12:52:00.706Z,98835.91
2022-08-23T12:54:37.559Z,98844.94
2022-08-23T12:57:11.631Z,98844.00
2022-08-23T13:00:17.186Z,98844.34
2022-08-23T13:03:21.243Z,98840.09
2022-08-23T13:06:01.992Z,98848.75
2022-08-23T13:08:36.222Z,98843.78
2022-08-23T13:11:08.372Z,98843.72
2022-08-23T13:13:39.637Z,98845.94
2022-08-23T13:16:45.863Z,98843.84
2022-08-23T13:19:32.158Z,98833.50
2022-08-23T13:22:27.805Z,98834.28
2022-08-23T13:25:29.681Z,98830.06
2022-08-23T13:28:05.354Z,98827.16
2022-08-23T13:30:37.119Z,98829.81
2022-08-23T13:33:10.713Z,98832.78
2022-08-23T13:35:45.634Z,98825.50
2022-08-23T13:38:30.338Z,98820.44
2022-08-23T13:41:08.782Z,98813.75
2022-08-23T13:43:44.600Z,98824.56
2022-08-23T13:46:26.992Z,98826.16
2022-08-23T13:49:27.219Z,98812.44
2022-08-23T13:52:11.948Z,98813.78
2022-08-23T13:54:45.766Z,98806.19
2022-08-23T13:57:18.542Z,98808.06
2022-08-23T13:59:54.314Z,98801.63
2022-08-23T14:02:24.837Z,98808.41
2022-08-23T14:04:51.865Z,98813.66
2022-08-23T14:07:19.316Z,98818.75
2022-08-23T14:09:45.970Z,98812.25
2022-08-23T14:12:23.054Z,98809.06
2022-08-23T14:14:50.556Z,98815.59
2022-08-23T14:17:20.519Z,98811.03
2022-08-23T14:20:33.019Z,98813.47
2022-08-23T14:22:36.018Z,98807.56
2022-08-23T14:25:03.958Z,98812.09
2022-08-23T14:27:30.894Z,98809.50
2022-08-23T14:29:57.775Z,98807.16
2022-08-23T14:32:24.487Z,98803.81
2022-08-23T14:34:52.300Z,98809.19
2022-08-23T14:38:02.810Z,98798.66
2022-08-23T14:40:06.752Z,98807.66
2022-08-23T14:42:33.511Z,98809.47
2022-08-23T14:45:00.328Z,98813.88
2022-08-23T14:47:27.712Z,98815.25
2022-08-23T14:49:54.667Z,98812.41
2022-08-23T14:52:23.355Z,98820.53
2022-08-23T14:54:50.587Z,98812.50
2022-08-23T14:57:17.347Z,98802.25
2022-08-23T14:59:44.077Z,98805.25
2022-08-23T15:02:13.419Z,98800.81
2022-08-23T15:04:42.032Z,98809.63
2022-08-23T15:07:24.020Z,98805.28
2022-08-23T15:09:54.623Z,98814.03
2022-08-23T15:15:17.475Z,98809.63
2022-08-23T15:17:58.555Z,98808.16
2022-08-23T15:20:30.963Z,98810.38
2022-08-23T15:22:57.972Z,98812.50
2022-08-23T15:25:26.861Z,98810.31
2022-08-23T15:27:54.092Z,98810.69
2022-08-23T15:30:23.312Z,98809.34
2022-08-23T15:32:52.514Z,98803.34
2022-08-23T15:35:25.206Z,98810.09
2022-08-23T15:37:54.361Z,98797.88
2022-08-23T15:40:21.159Z,98802.13
2022-08-23T15:42:47.879Z,98797.59
2022-08-23T15:45:14.883Z,98793.88
2022-08-23T15:47:50.063Z,98799.03
2022-08-23T15:50:20.656Z,98796.09
2022-08-23T15:52:47.488Z,98799.19
2022-08-23T15:55:14.359Z,98797.06
2022-08-23T15:57:48.033Z,98790.56
2022-08-23T16:00:18.089Z,98796.41
2022-08-23T16:03:06.455Z,98794.97
2022-08-23T16:05:31.991Z,98805.94
2022-08-23T16:07:59.743Z,98799.38
2022-08-23T16:10:27.543Z,98800.09
2022-08-23T16:12:55.445Z,98802.31
2022-08-23T16:15:22.155Z,98805.25
2022-08-23T16:17:48.970Z,98803.78
2022-08-23T16:20:15.705Z,98804.53
2022-08-23T16:22:42.407Z,98805.28
2022-08-23T16:25:09.879Z,98792.09
2022-08-23T16:27:37.051Z,98800.84
2022-08-23T16:30:05.871Z,98803.06
2022-08-23T16:32:32.511Z,98796.44
2022-08-23T16:34:59.143Z,98799.41
2022-08-23T16:37:25.796Z,98802.28
2022-08-23T16:39:53.076Z,98808.16
2022-08-23T16:42:19.939Z,98800.13
2022-08-23T16:44:46.879Z,98807.41
2022-08-23T16:47:14.556Z,98802.31
2022-08-23T16:49:43.024Z,98805.28
2022-08-23T16:52:10.620Z,98797.94
2022-08-23T16:54:38.543Z,98800.16
2022-08-23T16:57:05.916Z,98806.75
2022-08-23T16:59:36.122Z,98812.59
2022-08-23T17:02:10.872Z,98808.91
2022-08-23T17:04:38.091Z,98812.56
2022-08-23T17:07:04.861Z,98815.47
2022-08-23T17:09:31.567Z,98812.41
2022-08-23T17:11:58.453Z,98810.81
2022-08-23T17:14:26.060Z,98807.81
2022-08-23T17:16:53.156Z,98813.38
2022-08-23T17:19:19.973Z,98815.97
2022-08-23T17:21:46.859Z,98818.81
2022-08-23T17:24:13.700Z,98823.84
2022-08-23T17:26:40.463Z,98817.13
2022-08-23T17:29:09.249Z,98824.22
2022-08-23T17:31:37.670Z,98827.13
2022-08-23T17:34:06.699Z,98826.78
2022-08-23T17:36:54.791Z,98828.00
2022-08-23T17:39:27.248Z,98830.72
2022-08-23T17:41:58.538Z,98839.44
2022-08-23T17:44:25.335Z,98831.47
2022-08-23T17:46:52.909Z,98840.59
2022-08-23T17:49:20.304Z,98843.28
2022-08-23T17:51:47.480Z,98835.59
2022-08-23T17:54:16.389Z,98835.88
2022-08-23T17:56:49.926Z,98839.66
2022-08-23T17:59:20.887Z,98838.72
2022-08-23T18:01:47.691Z,98844.06
2022-08-23T18:04:14.727Z,98849.38
2022-08-23T18:06:41.499Z,98850.75
2022-08-23T18:09:08.408Z,98852.28
2022-08-23T18:11:35.652Z,98852.88
2022-08-23T18:14:03.179Z,98852.66
2022-08-23T18:16:34.974Z,98850.59
2022-08-23T18:19:04.762Z,98853.81
2022-08-23T18:21:31.408Z,98854.25
2022-08-23T18:23:58.890Z,98856.75
2022-08-23T18:26:44.877Z,98861.31
2022-08-23T18:29:12.173Z,98860.38
2022-08-23T18:31:42.078Z,98866.41
2022-08-23T18:34:10.836Z,98876.84
2022-08-23T18:36:37.881Z,98884.81
2022-08-23T18:39:07.219Z,98868.84
2022-08-23T18:41:34.447Z,98881.91
2022-08-23T18:44:01.892Z,98883.63
2022-08-23T18:46:34.769Z,98886.13
2022-08-23T18:49:02.393Z,98879.03
2022-08-23T18:51:29.755Z,98889.41
2022-08-23T18:53:56.907Z,98882.31
2022-08-23T18:56:24.336Z,98890.09
2022-08-23T18:58:51.512Z,98890.78
2022-08-23T19:01:28.559Z,98895.78
2022-08-23T19:03:57.844Z,98889.72
2022-08-23T19:06:24.974Z,98896.47
2022-08-23T19:08:52.850Z,98896.25
2022-08-23T19:11:20.605Z,98902.13
2022-08-23T19:13:47.628Z,98910.56
2022-08-23T19:16:15.517Z,98914.84
2022-08-23T19:18:44.975Z,98909.53
2022-08-23T19:21:14.521Z,98916.94
2022-08-23T19:23:42.140Z,98917.25
2022-08-23T19:26:10.897Z,98918.19
2022-08-23T19:28:38.836Z,98916.22
2022-08-23T19:31:06.099Z,98921.47
2022-08-23T19:33:32.858Z,98924.28
2022-08-23T19:35:59.684Z,98924.22
2022-08-23T19:38:27.713Z,98928.28
2022-08-23T19:40:56.541Z,98917.34
2022-08-23T19:43:24.196Z,98928.50
2022-08-23T19:46:05.933Z,98915.97
2022-08-23T19:48:32.913Z,98924.16
2022-08-23T19:50:59.564Z,98925.63
2022-08-23T19:53:26.248Z,98927.84
2022-08-23T19:55:53.106Z,98928.09
2022-08-23T19:58:19.764Z,98920.47
2022-08-23T20:00:46.430Z,98925.81
2022-08-23T20:03:13.259Z,98937.03
2022-08-23T20:05:39.963Z,98937.63
2022-08-23T20:08:07.355Z,98941.06
2022-08-23T20:10:34.040Z,98940.38
2022-08-23T20:13:01.013Z,98939.84
2022-08-23T20:15:29.068Z,98946.16
2022-08-23T20:17:56.575Z,98941.63
2022-08-23T20:20:23.195Z,98952.97
2022-08-23T20:23:18.313Z,98949.53
2022-08-23T20:25:44.942Z,98948.66
2022-08-23T20:28:11.655Z,98960.06
2022-08-23T20:30:38.466Z,98951.88
2022-08-23T20:33:05.178Z,98956.50
2022-08-23T20:35:32.062Z,98962.25
2022-08-23T20:37:58.868Z,98956.94
2022-08-23T20:40:25.929Z,98962.56
2022-08-23T20:42:52.695Z,98962.78
2022-08-23T20:45:20.014Z,98965.28
2022-08-23T20:47:46.722Z,98964.44
2022-08-23T20:50:13.484Z,98962.63
2022-08-23T20:52:40.302Z,98962.41
2022-08-23T20:55:10.709Z,98960.69
2022-08-23T20:57:38.808Z,98965.31
2022-08-23T21:00:08.966Z,98965.66
2022-08-23T21:02:35.778Z,98981.06
2022-08-23T21:05:06.396Z,98984.38
2022-08-23T21:07:33.331Z,98991.09
2022-08-23T21:10:00.008Z,98994.03
2022-08-23T21:12:26.639Z,98989.75
2022-08-23T21:14:55.230Z,98995.41
2022-08-23T21:17:21.858Z,98995.38
2022-08-23T21:19:48.506Z,98987.59
2022-08-23T21:22:15.154Z,98995.63
2022-08-23T21:24:41.979Z,98990.91
2022-08-23T21:27:09.531Z,98994.50
2022-08-23T21:29:37.608Z,98993.22
2022-08-23T21:32:04.771Z,98989.97
2022-08-23T21:34:31.418Z,98987.97
2022-08-23T21:36:58.128Z,98998.94
2022-08-23T21:39:24.763Z,98996.16
2022-08-23T21:41:51.470Z,99008.72
2022-08-23T21:44:20.979Z,99001.75
2022-08-23T21:46:48.529Z,99012.69
2022-08-23T21:49:16.137Z,99002.03
2022-08-23T21:51:43.894Z,99005.38
2022-08-23T21:54:12.781Z,98999.38
2022-08-23T21:56:40.595Z,99002.97
2022-08-23T21:59:11.067Z,99004.19
2022-08-23T22:01:38.972Z,99003.34
2022-08-23T22:04:10.032Z,98997.50
2022-08-23T22:06:38.615Z,99003.44
2022-08-23T22:09:09.077Z,98999.53
2022-08-23T22:11:41.557Z,99007.34
2022-08-23T22:14:14.908Z,99013.63
2022-08-23T22:16:43.987Z,99007.91
2022-08-23T22:19:12.880Z,99001.59
2022-08-23T22:21:39.796Z,99015.09
2022-08-23T22:24:07.049Z,99019.16
2022-08-23T22:26:34.362Z,99016.16
2022-08-23T22:29:01.021Z,99016.69
2022-08-23T22:31:28.524Z,99029.06
2022-08-23T22:33:55.243Z,99021.63
2022-08-23T22:36:24.037Z,99024.13
2022-08-23T22:38:51.737Z,99016.66
2022-08-23T22:41:23.929Z,99020.31
2022-08-23T22:43:54.219Z,99022.31
2022-08-23T22:46:22.958Z,99017.69
2022-08-23T22:48:50.099Z,99023.19
2022-08-23T22:51:22.032Z,99019.44
2022-08-23T22:53:57.991Z,99017.69
2022-08-23T22:56:32.898Z,99018.81
2022-08-23T22:58:59.778Z,99021.38
2022-08-23T23:01:37.656Z,99021.44
2022-08-23T23:04:10.687Z,99024.13
2022-08-23T23:06:37.894Z,99021.09
2022-08-23T23:09:07.807Z,99025.19
2022-08-23T23:11:35.867Z,99017.63
2022-08-23T23:14:05.081Z,99035.28
2022-08-23T23:16:31.994Z,99026.09
2022-08-23T23:19:18.117Z,99038.59
2022-08-23T23:21:52.586Z,99031.00
2022-08-23T23:24:24.814Z,99034.88
2022-08-23T23:26:51.821Z,99033.13
2022-08-23T23:29:19.277Z,99033.88
2022-08-23T23:31:46.165Z,99035.41
2022-08-23T23:34:13.073Z,99037.41
2022-08-23T23:36:40.961Z,99036.88
2022-08-23T23:39:10.722Z,99034.03
2022-08-23T23:41:38.170Z,99038.38
2022-08-23T23:44:05.828Z,99039.19
2022-08-23T23:46:32.611Z,99035.41
2022-08-23T23:48:59.317Z,99038.50
2022-08-23T23:51:29.478Z,99037.97
2022-08-23T23:53:59.505Z,99041.81
2022-08-23T23:56:29.655Z,99048.19
2022-08-23T23:58:58.460Z,99038.72
